sensor_id;sensor_type;location;lat;lon;timestamp;P1;durP1;ratioP1;P2;durP2;ratioP2
20397;SDS011;10358;49.590;11.030;2023-07-09T00:01:55;10.48;;;6.03;;
20397;SDS011;10358;49.590;11.030;2023-07-09T00:04:20;8.93;;;6.65;;
20397;SDS011;10358;49.590;11.030;2023-07-09T00:06:46;9.57;;;6.28;;
20397;SDS011;10358;49.590;11.030;2023-07-09T00:09:13;9.80;;;5.95;;
20397;SDS011;10358;49.590;11.030;2023-07-09T00:11:41;8.20;;;6.43;;
20397;SDS011;10358;49.590;11.030;2023-07-09T00:14:08;8.68;;;5.95;;
20397;SDS011;10358;49.590;11.030;2023-07-09T00:16:38;7.97;;;6.13;;
20397;SDS011;10358;49.590;11.030;2023-07-09T00:19:05;11.10;;;6.07;;
20397;SDS011;10358;49.590;11.030;2023-07-09T00:21:38;10.18;;;6.38;;
20397;SDS011;10358;49.590;11.030;2023-07-09T00:24:06;8.63;;;5.88;;
20397;SDS011;10358;49.590;11.030;2023-07-09T00:26:32;11.07;;;6.40;;
20397;SDS011;10358;49.590;11.030;2023-07-09T00:28:58;9.65;;;6.10;;
20397;SDS011;10358;49.590;11.030;2023-07-09T00:31:25;12.77;;;6.03;;
20397;SDS011;10358;49.590;11.030;2023-07-09T00:33:51;15.38;;;6.57;;
20397;SDS011;10358;49.590;11.030;2023-07-09T00:36:22;15.18;;;6.95;;
20397;SDS011;10358;49.590;11.030;2023-07-09T00:38:53;16.60;;;6.90;;
20397;SDS011;10358;49.590;11.030;2023-07-09T00:41:20;19.67;;;7.70;;
20397;SDS011;10358;49.590;11.030;2023-07-09T00:43:48;10.48;;;6.63;;
20397;SDS011;10358;49.590;11.030;2023-07-09T00:48:53;13.20;;;7.35;;
20397;SDS011;10358;49.590;11.030;2023-07-09T00:51:23;11.93;;;6.43;;
20397;SDS011;10358;49.590;11.030;2023-07-09T00:53:55;9.23;;;6.32;;
20397;SDS011;10358;49.590;11.030;2023-07-09T00:56:27;8.82;;;6.32;;
20397;SDS011;10358;49.590;11.030;2023-07-09T00:59:03;9.82;;;6.50;;
20397;SDS011;10358;49.590;11.030;2023-07-09T01:01:32;9.80;;;6.53;;
20397;SDS011;10358;49.590;11.030;2023-07-09T01:03:59;11.98;;;6.53;;
20397;SDS011;10358;49.590;11.030;2023-07-09T01:06:29;11.63;;;6.80;;
20397;SDS011;10358;49.590;11.030;2023-07-09T01:08:59;9.55;;;6.47;;
20397;SDS011;10358;49.590;11.030;2023-07-09T01:11:27;11.25;;;6.78;;
20397;SDS011;10358;49.590;11.030;2023-07-09T01:14:00;12.68;;;6.75;;
20397;SDS011;10358;49.590;11.030;2023-07-09T01:16:30;10.23;;;6.65;;
20397;SDS011;10358;49.590;11.030;2023-07-09T01:18:58;11.90;;;7.03;;
20397;SDS011;10358;49.590;11.030;2023-07-09T01:21:25;9.50;;;6.97;;
20397;SDS011;10358;49.590;11.030;2023-07-09T01:23:52;11.77;;;6.57;;
20397;SDS011;10358;49.590;11.030;2023-07-09T01:26:20;13.80;;;8.48;;
20397;SDS011;10358;49.590;11.030;2023-07-09T01:28:49;11.77;;;7.20;;
20397;SDS011;10358;49.590;11.030;2023-07-09T01:31:15;10.95;;;7.30;;
20397;SDS011;10358;49.590;11.030;2023-07-09T01:33:41;10.80;;;7.57;;
20397;SDS011;10358;49.590;11.030;2023-07-09T01:36:10;11.77;;;7.28;;
20397;SDS011;10358;49.590;11.030;2023-07-09T01:38:38;9.27;;;6.50;;
20397;SDS011;10358;49.590;11.030;2023-07-09T01:41:05;10.75;;;6.70;;
20397;SDS011;10358;49.590;11.030;2023-07-09T01:43:31;12.75;;;6.90;;
20397;SDS011;10358;49.590;11.030;2023-07-09T01:45:57;12.35;;;6.82;;
20397;SDS011;10358;49.590;11.030;2023-07-09T01:48:23;9.73;;;6.55;;
20397;SDS011;10358;49.590;11.030;2023-07-09T01:50:51;11.48;;;6.72;;
20397;SDS011;10358;49.590;11.030;2023-07-09T01:53:19;12.80;;;7.05;;
20397;SDS011;10358;49.590;11.030;2023-07-09T01:55:51;12.25;;;6.85;;
20397;SDS011;10358;49.590;11.030;2023-07-09T01:58:17;13.55;;;6.88;;
20397;SDS011;10358;49.590;11.030;2023-07-09T02:00:43;12.00;;;7.13;;
20397;SDS011;10358;49.590;11.030;2023-07-09T02:03:10;10.48;;;6.75;;
20397;SDS011;10358;49.590;11.030;2023-07-09T02:05:36;10.77;;;7.28;;
20397;SDS011;10358;49.590;11.030;2023-07-09T02:08:02;15.02;;;7.05;;
20397;SDS011;10358;49.590;11.030;2023-07-09T02:10:28;12.20;;;7.05;;
20397;SDS011;10358;49.590;11.030;2023-07-09T02:12:54;9.85;;;6.68;;
20397;SDS011;10358;49.590;11.030;2023-07-09T02:15:19;10.52;;;6.82;;
20397;SDS011;10358;49.590;11.030;2023-07-09T02:17:45;10.93;;;6.75;;
20397;SDS011;10358;49.590;11.030;2023-07-09T02:20:11;10.82;;;7.47;;
20397;SDS011;10358;49.590;11.030;2023-07-09T02:22:38;12.77;;;6.93;;
20397;SDS011;10358;49.590;11.030;2023-07-09T02:25:04;10.70;;;6.82;;
20397;SDS011;10358;49.590;11.030;2023-07-09T02:27:31;9.43;;;6.70;;
20397;SDS011;10358;49.590;11.030;2023-07-09T02:29:56;10.18;;;6.53;;
20397;SDS011;10358;49.590;11.030;2023-07-09T02:32:23;9.30;;;6.65;;
20397;SDS011;10358;49.590;11.030;2023-07-09T02:34:51;11.68;;;7.13;;
20397;SDS011;10358;49.590;11.030;2023-07-09T02:37:18;9.52;;;6.75;;
20397;SDS011;10358;49.590;11.030;2023-07-09T02:39:46;10.85;;;7.30;;
20397;SDS011;10358;49.590;11.030;2023-07-09T02:42:13;11.75;;;6.78;;
20397;SDS011;10358;49.590;11.030;2023-07-09T02:44:40;10.80;;;6.95;;
20397;SDS011;10358;49.590;11.030;2023-07-09T02:47:06;11.93;;;7.00;;
20397;SDS011;10358;49.590;11.030;2023-07-09T02:49:33;10.32;;;6.80;;
20397;SDS011;10358;49.590;11.030;2023-07-09T02:51:58;10.93;;;6.63;;
20397;SDS011;10358;49.590;11.030;2023-07-09T02:54:24;13.55;;;6.88;;
20397;SDS011;10358;49.590;11.030;2023-07-09T02:56:50;9.32;;;6.88;;
20397;SDS011;10358;49.590;11.030;2023-07-09T02:59:16;9.20;;;6.75;;
20397;SDS011;10358;49.590;11.030;2023-07-09T03:01:41;12.48;;;6.85;;
20397;SDS011;10358;49.590;11.030;2023-07-09T03:04:07;11.93;;;7.35;;
20397;SDS011;10358;49.590;11.030;2023-07-09T03:06:33;9.20;;;6.63;;
20397;SDS011;10358;49.590;11.030;2023-07-09T03:09:00;10.57;;;6.80;;
20397;SDS011;10358;49.590;11.030;2023-07-09T03:11:28;9.90;;;6.38;;
20397;SDS011;10358;49.590;11.030;2023-07-09T03:13:55;8.25;;;6.25;;
20397;SDS011;10358;49.590;11.030;2023-07-09T03:16:20;10.95;;;7.03;;
20397;SDS011;10358;49.590;11.030;2023-07-09T03:18:46;11.23;;;6.85;;
20397;SDS011;10358;49.590;11.030;2023-07-09T03:21:11;8.55;;;6.72;;
20397;SDS011;10358;49.590;11.030;2023-07-09T03:23:37;13.23;;;7.18;;
20397;SDS011;10358;49.590;11.030;2023-07-09T03:26:03;9.48;;;6.50;;
20397;SDS011;10358;49.590;11.030;2023-07-09T03:28:30;9.85;;;7.00;;
20397;SDS011;10358;49.590;11.030;2023-07-09T03:30:56;8.50;;;6.57;;
20397;SDS011;10358;49.590;11.030;2023-07-09T03:33:22;10.25;;;6.47;;
20397;SDS011;10358;49.590;11.030;2023-07-09T03:35:48;15.10;;;7.18;;
20397;SDS011;10358;49.590;11.030;2023-07-09T03:38:14;8.70;;;6.32;;
20397;SDS011;10358;49.590;11.030;2023-07-09T03:40:40;9.55;;;6.53;;
20397;SDS011;10358;49.590;11.030;2023-07-09T03:43:05;10.02;;;6.78;;
20397;SDS011;10358;49.590;11.030;2023-07-09T03:45:32;9.82;;;6.95;;
20397;SDS011;10358;49.590;11.030;2023-07-09T03:48:00;8.93;;;6.75;;
20397;SDS011;10358;49.590;11.030;2023-07-09T03:50:26;18.25;;;7.63;;
20397;SDS011;10358;49.590;11.030;2023-07-09T03:52:51;12.30;;;7.25;;
20397;SDS011;10358;49.590;11.030;2023-07-09T03:55:17;10.40;;;6.88;;
20397;SDS011;10358;49.590;11.030;2023-07-09T03:57:43;8.90;;;6.57;;
20397;SDS011;10358;49.590;11.030;2023-07-09T04:00:08;14.23;;;7.00;;
20397;SDS011;10358;49.590;11.030;2023-07-09T04:02:35;11.02;;;7.45;;
20397;SDS011;10358;49.590;11.030;2023-07-09T04:05:01;11.45;;;7.65;;
20397;SDS011;10358;49.590;11.030;2023-07-09T04:07:27;9.35;;;6.88;;
20397;SDS011;10358;49.590;11.030;2023-07-09T04:09:53;10.63;;;7.10;;
20397;SDS011;10358;49.590;11.030;2023-07-09T04:12:19;19.73;;;6.90;;
20397;SDS011;10358;49.590;11.030;2023-07-09T04:14:44;9.90;;;7.00;;
20397;SDS011;10358;49.590;11.030;2023-07-09T04:17:10;10.60;;;7.13;;
20397;SDS011;10358;49.590;11.030;2023-07-09T04:19:36;11.07;;;7.38;;
20397;SDS011;10358;49.590;11.030;2023-07-09T04:22:01;10.68;;;7.07;;
20397;SDS011;10358;49.590;11.030;2023-07-09T04:24:27;11.35;;;6.68;;
20397;SDS011;10358;49.590;11.030;2023-07-09T04:26:53;8.40;;;6.50;;
20397;SDS011;10358;49.590;11.030;2023-07-09T04:29:21;11.50;;;6.70;;
20397;SDS011;10358;49.590;11.030;2023-07-09T04:31:47;10.75;;;7.65;;
20397;SDS011;10358;49.590;11.030;2023-07-09T04:34:13;11.95;;;7.15;;
20397;SDS011;10358;49.590;11.030;2023-07-09T04:36:38;12.55;;;7.57;;
20397;SDS011;10358;49.590;11.030;2023-07-09T04:39:04;10.82;;;7.50;;
20397;SDS011;10358;49.590;11.030;2023-07-09T04:41:30;9.77;;;6.90;;
20397;SDS011;10358;49.590;11.030;2023-07-09T04:43:55;9.45;;;6.60;;
20397;SDS011;10358;49.590;11.030;2023-07-09T04:46:21;12.48;;;7.90;;
20397;SDS011;10358;49.590;11.030;2023-07-09T04:48:46;11.13;;;7.90;;
20397;SDS011;10358;49.590;11.030;2023-07-09T04:51:12;10.48;;;6.90;;
20397;SDS011;10358;49.590;11.030;2023-07-09T04:53:38;9.18;;;6.72;;
20397;SDS011;10358;49.590;11.030;2023-07-09T04:56:10;10.40;;;6.78;;
20397;SDS011;10358;49.590;11.030;2023-07-09T04:58:38;8.20;;;6.13;;
20397;SDS011;10358;49.590;11.030;2023-07-09T05:01:04;9.35;;;6.53;;
20397;SDS011;10358;49.590;11.030;2023-07-09T05:03:29;10.75;;;6.78;;
20397;SDS011;10358;49.590;11.030;2023-07-09T05:05:55;8.57;;;6.40;;
20397;SDS011;10358;49.590;11.030;2023-07-09T05:08:21;10.65;;;6.68;;
20397;SDS011;10358;49.590;11.030;2023-07-09T05:10:50;12.27;;;6.88;;
20397;SDS011;10358;49.590;11.030;2023-07-09T05:13:17;12.55;;;7.22;;
20397;SDS011;10358;49.590;11.030;2023-07-09T05:15:44;10.15;;;6.80;;
20397;SDS011;10358;49.590;11.030;2023-07-09T05:18:11;10.63;;;6.50;;
20397;SDS011;10358;49.590;11.030;2023-07-09T05:20:37;8.20;;;6.47;;
20397;SDS011;10358;49.590;11.030;2023-07-09T05:23:03;11.82;;;5.97;;
20397;SDS011;10358;49.590;11.030;2023-07-09T05:25:29;9.77;;;6.55;;
20397;SDS011;10358;49.590;11.030;2023-07-09T05:27:55;8.68;;;6.57;;
20397;SDS011;10358;49.590;11.030;2023-07-09T05:30:20;11.05;;;7.00;;
20397;SDS011;10358;49.590;11.030;2023-07-09T05:32:46;13.07;;;7.50;;
20397;SDS011;10358;49.590;11.030;2023-07-09T05:35:12;10.65;;;7.13;;
20397;SDS011;10358;49.590;11.030;2023-07-09T05:37:38;18.73;;;7.22;;
20397;SDS011;10358;49.590;11.030;2023-07-09T05:40:05;12.32;;;7.50;;
20397;SDS011;10358;49.590;11.030;2023-07-09T05:42:32;13.10;;;6.43;;
20397;SDS011;10358;49.590;11.030;2023-07-09T05:44:58;9.18;;;6.72;;
20397;SDS011;10358;49.590;11.030;2023-07-09T05:47:25;11.75;;;6.82;;
20397;SDS011;10358;49.590;11.030;2023-07-09T05:49:51;12.15;;;6.25;;
20397;SDS011;10358;49.590;11.030;2023-07-09T05:52:18;8.50;;;6.50;;
20397;SDS011;10358;49.590;11.030;2023-07-09T05:54:44;10.77;;;6.65;;
20397;SDS011;10358;49.590;11.030;2023-07-09T05:57:11;9.60;;;6.53;;
20397;SDS011;10358;49.590;11.030;2023-07-09T05:59:36;9.52;;;6.28;;
20397;SDS011;10358;49.590;11.030;2023-07-09T06:02:02;11.57;;;6.65;;
20397;SDS011;10358;49.590;11.030;2023-07-09T06:08:21;8.70;;;5.95;;
20397;SDS011;10358;49.590;11.030;2023-07-09T06:10:57;12.18;;;6.57;;
20397;SDS011;10358;49.590;11.030;2023-07-09T06:13:25;14.38;;;6.72;;
20397;SDS011;10358;49.590;11.030;2023-07-09T06:15:52;10.60;;;6.88;;
20397;SDS011;10358;49.590;11.030;2023-07-09T06:18:20;9.32;;;6.63;;
20397;SDS011;10358;49.590;11.030;2023-07-09T06:20:50;10.20;;;7.10;;
20397;SDS011;10358;49.590;11.030;2023-07-09T06:23:19;13.15;;;7.38;;
20397;SDS011;10358;49.590;11.030;2023-07-09T06:25:45;13.57;;;7.25;;
20397;SDS011;10358;49.590;11.030;2023-07-09T06:28:16;11.23;;;6.30;;
20397;SDS011;10358;49.590;11.030;2023-07-09T06:30:43;11.15;;;6.80;;
20397;SDS011;10358;49.590;11.030;2023-07-09T06:33:10;11.77;;;6.85;;
20397;SDS011;10358;49.590;11.030;2023-07-09T06:35:36;9.98;;;6.90;;
20397;SDS011;10358;49.590;11.030;2023-07-09T06:38:02;9.48;;;6.45;;
20397;SDS011;10358;49.590;11.030;2023-07-09T06:40:28;8.88;;;6.43;;
20397;SDS011;10358;49.590;11.030;2023-07-09T06:42:54;9.65;;;6.05;;
20397;SDS011;10358;49.590;11.030;2023-07-09T06:45:19;12.63;;;6.68;;
20397;SDS011;10358;49.590;11.030;2023-07-09T06:47:45;8.45;;;5.80;;
20397;SDS011;10358;49.590;11.030;2023-07-09T06:50:11;8.32;;;6.20;;
20397;SDS011;10358;49.590;11.030;2023-07-09T06:52:37;10.77;;;6.05;;
20397;SDS011;10358;49.590;11.030;2023-07-09T06:55:03;9.88;;;5.85;;
20397;SDS011;10358;49.590;11.030;2023-07-09T06:57:28;11.23;;;5.90;;
20397;SDS011;10358;49.590;11.030;2023-07-09T06:59:54;7.68;;;5.53;;
20397;SDS011;10358;49.590;11.030;2023-07-09T07:02:20;10.10;;;5.70;;
20397;SDS011;10358;49.590;11.030;2023-07-09T07:04:45;12.13;;;6.60;;
20397;SDS011;10358;49.590;11.030;2023-07-09T07:07:11;11.57;;;6.10;;
20397;SDS011;10358;49.590;11.030;2023-07-09T07:09:37;10.40;;;5.90;;
20397;SDS011;10358;49.590;11.030;2023-07-09T07:12:02;7.95;;;5.15;;
20397;SDS011;10358;49.590;11.030;2023-07-09T07:14:28;10.23;;;5.22;;
20397;SDS011;10358;49.590;11.030;2023-07-09T07:16:55;6.93;;;4.78;;
20397;SDS011;10358;49.590;11.030;2023-07-09T07:19:22;7.95;;;5.30;;
20397;SDS011;10358;49.590;11.030;2023-07-09T07:21:48;9.57;;;5.65;;
20397;SDS011;10358;49.590;11.030;2023-07-09T07:24:13;10.95;;;5.43;;
20397;SDS011;10358;49.590;11.030;2023-07-09T07:26:39;8.95;;;5.20;;
20397;SDS011;10358;49.590;11.030;2023-07-09T07:29:05;10.15;;;4.80;;
20397;SDS011;10358;49.590;11.030;2023-07-09T07:31:30;8.25;;;4.70;;
20397;SDS011;10358;49.590;11.030;2023-07-09T07:33:56;7.00;;;4.97;;
20397;SDS011;10358;49.590;11.030;2023-07-09T07:36:21;8.70;;;4.68;;
20397;SDS011;10358;49.590;11.030;2023-07-09T07:38:47;7.32;;;4.80;;
20397;SDS011;10358;49.590;11.030;2023-07-09T07:41:12;8.85;;;4.88;;
20397;SDS011;10358;49.590;11.030;2023-07-09T07:43:38;8.00;;;4.40;;
20397;SDS011;10358;49.590;11.030;2023-07-09T07:46:03;8.57;;;4.80;;
20397;SDS011;10358;49.590;11.030;2023-07-09T07:48:29;8.50;;;4.88;;
20397;SDS011;10358;49.590;11.030;2023-07-09T07:51:01;9.85;;;4.57;;
20397;SDS011;10358;49.590;11.030;2023-07-09T07:53:28;6.78;;;4.65;;
20397;SDS011;10358;49.590;11.030;2023-07-09T07:55:55;9.13;;;4.70;;
20397;SDS011;10358;49.590;11.030;2023-07-09T07:58:26;10.18;;;4.80;;
20397;SDS011;10358;49.590;11.030;2023-07-09T08:00:56;8.82;;;4.68;;
20397;SDS011;10358;49.590;11.030;2023-07-09T08:03:23;6.68;;;4.32;;
20397;SDS011;10358;49.590;11.030;2023-07-09T08:05:49;11.20;;;6.68;;
20397;SDS011;10358;49.590;11.030;2023-07-09T08:08:15;10.55;;;5.40;;
20397;SDS011;10358;49.590;11.030;2023-07-09T08:10:41;7.07;;;4.40;;
20397;SDS011;10358;49.590;11.030;2023-07-09T08:13:06;7.43;;;4.50;;
20397;SDS011;10358;49.590;11.030;2023-07-09T08:15:32;7.18;;;4.45;;
20397;SDS011;10358;49.590;11.030;2023-07-09T08:17:57;7.50;;;4.55;;
20397;SDS011;10358;49.590;11.030;2023-07-09T08:20:23;8.05;;;4.40;;
20397;SDS011;10358;49.590;11.030;2023-07-09T08:22:49;7.45;;;4.50;;
20397;SDS011;10358;49.590;11.030;2023-07-09T08:25:14;7.68;;;4.65;;
20397;SDS011;10358;49.590;11.030;2023-07-09T08:27:40;11.18;;;4.95;;
20397;SDS011;10358;49.590;11.030;2023-07-09T08:30:05;10.40;;;4.55;;
20397;SDS011;10358;49.590;11.030;2023-07-09T08:32:32;7.32;;;4.45;;
20397;SDS011;10358;49.590;11.030;2023-07-09T08:34:57;10.48;;;4.40;;
20397;SDS011;10358;49.590;11.030;2023-07-09T08:37:23;8.77;;;4.78;;
20397;SDS011;10358;49.590;11.030;2023-07-09T08:39:48;8.75;;;4.28;;
20397;SDS011;10358;49.590;11.030;2023-07-09T08:42:16;6.88;;;4.10;;
20397;SDS011;10358;49.590;11.030;2023-07-09T08:45:00;6.88;;;4.32;;
20397;SDS011;10358;49.590;11.030;2023-07-09T08:47:44;5.75;;;4.18;;
20397;SDS011;10358;49.590;11.030;2023-07-09T08:50:16;13.95;;;4.53;;
20397;SDS011;10358;49.590;11.030;2023-07-09T08:52:47;6.63;;;4.20;;
20397;SDS011;10358;49.590;11.030;2023-07-09T08:55:16;5.18;;;3.42;;
20397;SDS011;10358;49.590;11.030;2023-07-09T08:57:45;6.70;;;4.03;;
20397;SDS011;10358;49.590;11.030;2023-07-09T09:00:21;7.70;;;3.90;;
20397;SDS011;10358;49.590;11.030;2023-07-09T09:03:03;7.22;;;3.75;;
20397;SDS011;10358;49.590;11.030;2023-07-09T09:05:41;6.88;;;3.60;;
20397;SDS011;10358;49.590;11.030;2023-07-09T09:08:22;7.75;;;3.40;;
20397;SDS011;10358;49.590;11.030;2023-07-09T09:13:46;7.03;;;3.45;;
20397;SDS011;10358;49.590;11.030;2023-07-09T09:16:22;7.18;;;3.35;;
20397;SDS011;10358;49.590;11.030;2023-07-09T09:18:57;6.50;;;3.75;;
20397;SDS011;10358;49.590;11.030;2023-07-09T09:21:34;6.45;;;3.30;;
20397;SDS011;10358;49.590;11.030;2023-07-09T09:24:09;8.23;;;3.53;;
20397;SDS011;10358;49.590;11.030;2023-07-09T09:26:37;8.30;;;3.58;;
20397;SDS011;10358;49.590;11.030;2023-07-09T09:29:13;5.88;;;3.20;;
20397;SDS011;10358;49.590;11.030;2023-07-09T09:31:44;4.88;;;3.28;;
20397;SDS011;10358;49.590;11.030;2023-07-09T09:34:20;6.32;;;3.70;;
20397;SDS011;10358;49.590;11.030;2023-07-09T09:45:39;6.45;;;3.50;;
20397;SDS011;10358;49.590;11.030;2023-07-09T09:48:13;6.25;;;2.85;;
20397;SDS011;10358;49.590;11.030;2023-07-09T09:50:56;5.28;;;3.28;;
20397;SDS011;10358;49.590;11.030;2023-07-09T09:53:26;8.45;;;2.97;;
20397;SDS011;10358;49.590;11.030;2023-07-09T09:59:02;5.45;;;3.55;;
20397;SDS011;10358;49.590;11.030;2023-07-09T10:01:31;9.68;;;3.50;;
20397;SDS011;10358;49.590;11.030;2023-07-09T10:04:03;7.65;;;3.67;;
20397;SDS011;10358;49.590;11.030;2023-07-09T10:06:40;9.07;;;4.03;;
20397;SDS011;10358;49.590;11.030;2023-07-09T10:12:12;8.40;;;3.67;;
20397;SDS011;10358;49.590;11.030;2023-07-09T10:17:27;5.93;;;3.58;;
20397;SDS011;10358;49.590;11.030;2023-07-09T10:19:57;7.18;;;3.60;;
20397;SDS011;10358;49.590;11.030;2023-07-09T10:22:49;8.45;;;4.00;;
20397;SDS011;10358;49.590;11.030;2023-07-09T10:28:22;7.90;;;3.63;;
20397;SDS011;10358;49.590;11.030;2023-07-09T10:33:50;5.80;;;3.60;;
20397;SDS011;10358;49.590;11.030;2023-07-09T10:39:37;8.35;;;4.10;;
20397;SDS011;10358;49.590;11.030;2023-07-09T10:42:07;7.30;;;3.45;;
20397;SDS011;10358;49.590;11.030;2023-07-09T10:44:39;7.28;;;3.50;;
20397;SDS011;10358;49.590;11.030;2023-07-09T10:47:18;7.63;;;3.45;;
20397;SDS011;10358;49.590;11.030;2023-07-09T10:49:56;8.52;;;3.75;;
20397;SDS011;10358;49.590;11.030;2023-07-09T10:52:28;6.60;;;3.50;;
20397;SDS011;10358;49.590;11.030;2023-07-09T10:55:03;5.63;;;2.97;;
20397;SDS011;10358;49.590;11.030;2023-07-09T10:57:48;8.82;;;4.03;;
20397;SDS011;10358;49.590;11.030;2023-07-09T11:00:21;9.38;;;3.92;;
20397;SDS011;10358;49.590;11.030;2023-07-09T11:02:53;5.55;;;3.50;;
20397;SDS011;10358;49.590;11.030;2023-07-09T11:05:25;6.95;;;3.42;;
20397;SDS011;10358;49.590;11.030;2023-07-09T11:07:58;5.97;;;3.40;;
20397;SDS011;10358;49.590;11.030;2023-07-09T11:10:33;6.85;;;3.42;;
20397;SDS011;10358;49.590;11.030;2023-07-09T11:13:04;7.00;;;3.70;;
20397;SDS011;10358;49.590;11.030;2023-07-09T11:15:37;6.90;;;3.65;;
20397;SDS011;10358;49.590;11.030;2023-07-09T11:18:06;6.38;;;3.75;;
20397;SDS011;10358;49.590;11.030;2023-07-09T11:20:44;5.35;;;3.45;;
20397;SDS011;10358;49.590;11.030;2023-07-09T11:23:17;8.07;;;3.95;;
20397;SDS011;10358;49.590;11.030;2023-07-09T11:25:49;9.38;;;3.50;;
20397;SDS011;10358;49.590;11.030;2023-07-09T11:28:35;18.13;;;4.22;;
20397;SDS011;10358;49.590;11.030;2023-07-09T11:31:16;8.88;;;3.80;;
20397;SDS011;10358;49.590;11.030;2023-07-09T11:33:46;7.53;;;3.50;;
20397;SDS011;10358;49.590;11.030;2023-07-09T11:36:14;8.38;;;3.50;;
20397;SDS011;10358;49.590;11.030;2023-07-09T11:38:49;6.35;;;3.60;;
20397;SDS011;10358;49.590;11.030;2023-07-09T11:41:33;8.68;;;3.97;;
20397;SDS011;10358;49.590;11.030;2023-07-09T11:44:19;4.95;;;3.22;;
20397;SDS011;10358;49.590;11.030;2023-07-09T11:47:13;8.48;;;3.50;;
20397;SDS011;10358;49.590;11.030;2023-07-09T11:50:07;6.80;;;3.55;;
20397;SDS011;10358;49.590;11.030;2023-07-09T11:52:41;7.72;;;3.80;;
20397;SDS011;10358;49.590;11.030;2023-07-09T11:55:19;6.18;;;3.65;;
20397;SDS011;10358;49.590;11.030;2023-07-09T11:57:52;8.02;;;3.65;;
20397;SDS011;10358;49.590;11.030;2023-07-09T12:00:19;5.93;;;3.50;;
20397;SDS011;10358;49.590;11.030;2023-07-09T12:02:45;7.22;;;3.40;;
20397;SDS011;10358;49.590;11.030;2023-07-09T12:05:11;7.78;;;3.50;;
20397;SDS011;10358;49.590;11.030;2023-07-09T12:07:38;10.05;;;3.45;;
20397;SDS011;10358;49.590;11.030;2023-07-09T12:10:21;5.97;;;3.72;;
20397;SDS011;10358;49.590;11.030;2023-07-09T12:12:53;9.52;;;3.30;;
20397;SDS011;10358;49.590;11.030;2023-07-09T12:15:21;7.18;;;3.60;;
20397;SDS011;10358;49.590;11.030;2023-07-09T12:17:52;7.53;;;4.00;;
20397;SDS011;10358;49.590;11.030;2023-07-09T12:20:21;9.55;;;3.67;;
20397;SDS011;10358;49.590;11.030;2023-07-09T12:22:47;4.88;;;3.50;;
20397;SDS011;10358;49.590;11.030;2023-07-09T12:25:20;6.38;;;3.33;;
20397;SDS011;10358;49.590;11.030;2023-07-09T12:27:49;6.07;;;4.00;;
20397;SDS011;10358;49.590;11.030;2023-07-09T12:30:15;5.80;;;3.45;;
20397;SDS011;10358;49.590;11.030;2023-07-09T12:32:47;6.57;;;3.08;;
20397;SDS011;10358;49.590;11.030;2023-07-09T12:35:15;7.68;;;3.33;;
20397;SDS011;10358;49.590;11.030;2023-07-09T12:37:42;6.95;;;3.80;;
20397;SDS011;10358;49.590;11.030;2023-07-09T12:40:16;7.25;;;3.40;;
20397;SDS011;10358;49.590;11.030;2023-07-09T12:42:45;7.22;;;3.67;;
20397;SDS011;10358;49.590;11.030;2023-07-09T12:45:16;6.57;;;3.38;;
20397;SDS011;10358;49.590;11.030;2023-07-09T12:47:46;7.05;;;3.70;;
20397;SDS011;10358;49.590;11.030;2023-07-09T12:50:47;4.93;;;3.38;;
20397;SDS011;10358;49.590;11.030;2023-07-09T12:53:14;5.45;;;3.47;;
20397;SDS011;10358;49.590;11.030;2023-07-09T12:55:44;5.75;;;3.38;;
20397;SDS011;10358;49.590;11.030;2023-07-09T12:58:13;7.72;;;3.40;;
20397;SDS011;10358;49.590;11.030;2023-07-09T13:00:51;7.78;;;3.35;;
20397;SDS011;10358;49.590;11.030;2023-07-09T13:03:19;7.20;;;3.55;;
20397;SDS011;10358;49.590;11.030;2023-07-09T13:06:02;5.70;;;3.58;;
20397;SDS011;10358;49.590;11.030;2023-07-09T13:08:30;7.53;;;3.70;;
20397;SDS011;10358;49.590;11.030;2023-07-09T13:10:57;6.68;;;3.67;;
20397;SDS011;10358;49.590;11.030;2023-07-09T13:13:24;7.35;;;3.45;;
20397;SDS011;10358;49.590;11.030;2023-07-09T13:15:52;7.05;;;3.40;;
20397;SDS011;10358;49.590;11.030;2023-07-09T13:18:22;6.57;;;3.67;;
20397;SDS011;10358;49.590;11.030;2023-07-09T13:20:48;10.15;;;4.00;;
20397;SDS011;10358;49.590;11.030;2023-07-09T13:23:15;6.88;;;3.90;;
20397;SDS011;10358;49.590;11.030;2023-07-09T13:25:42;9.77;;;3.97;;
20397;SDS011;10358;49.590;11.030;2023-07-09T13:28:26;7.45;;;3.65;;
20397;SDS011;10358;49.590;11.030;2023-07-09T13:30:58;6.80;;;3.50;;
20397;SDS011;10358;49.590;11.030;2023-07-09T13:33:26;7.80;;;3.33;;
20397;SDS011;10358;49.590;11.030;2023-07-09T13:35:52;6.05;;;3.22;;
20397;SDS011;10358;49.590;11.030;2023-07-09T13:38:20;5.75;;;3.20;;
20397;SDS011;10358;49.590;11.030;2023-07-09T13:40:47;7.88;;;3.67;;
20397;SDS011;10358;49.590;11.030;2023-07-09T13:43:18;8.05;;;3.35;;
20397;SDS011;10358;49.590;11.030;2023-07-09T13:45:51;6.35;;;3.80;;
20397;SDS011;10358;49.590;11.030;2023-07-09T13:48:18;5.50;;;3.65;;
20397;SDS011;10358;49.590;11.030;2023-07-09T13:50:45;7.43;;;3.63;;
20397;SDS011;10358;49.590;11.030;2023-07-09T13:53:18;5.88;;;3.45;;
20397;SDS011;10358;49.590;11.030;2023-07-09T13:55:46;8.30;;;3.47;;
20397;SDS011;10358;49.590;11.030;2023-07-09T13:58:12;8.18;;;3.40;;
20397;SDS011;10358;49.590;11.030;2023-07-09T14:00:40;11.00;;;3.47;;
20397;SDS011;10358;49.590;11.030;2023-07-09T14:03:19;9.45;;;4.60;;
20397;SDS011;10358;49.590;11.030;2023-07-09T14:05:47;6.70;;;3.33;;
20397;SDS011;10358;49.590;11.030;2023-07-09T14:08:13;5.95;;;3.67;;
20397;SDS011;10358;49.590;11.030;2023-07-09T14:10:39;4.32;;;3.20;;
20397;SDS011;10358;49.590;11.030;2023-07-09T14:13:05;6.50;;;3.85;;
20397;SDS011;10358;49.590;11.030;2023-07-09T14:15:36;5.30;;;3.35;;
20397;SDS011;10358;49.590;11.030;2023-07-09T14:18:01;7.00;;;3.90;;
20397;SDS011;10358;49.590;11.030;2023-07-09T14:20:27;5.70;;;3.72;;
20397;SDS011;10358;49.590;11.030;2023-07-09T14:22:54;7.47;;;3.78;;
20397;SDS011;10358;49.590;11.030;2023-07-09T14:25:21;9.73;;;3.72;;
20397;SDS011;10358;49.590;11.030;2023-07-09T14:27:49;9.10;;;3.40;;
20397;SDS011;10358;49.590;11.030;2023-07-09T14:30:25;10.27;;;3.70;;
20397;SDS011;10358;49.590;11.030;2023-07-09T14:32:51;6.25;;;3.60;;
20397;SDS011;10358;49.590;11.030;2023-07-09T14:35:18;6.15;;;3.50;;
20397;SDS011;10358;49.590;11.030;2023-07-09T14:37:48;9.63;;;3.60;;
20397;SDS011;10358;49.590;11.030;2023-07-09T14:40:16;7.32;;;3.67;;
20397;SDS011;10358;49.590;11.030;2023-07-09T14:42:44;5.72;;;3.78;;
20397;SDS011;10358;49.590;11.030;2023-07-09T14:45:26;6.05;;;3.40;;
20397;SDS011;10358;49.590;11.030;2023-07-09T14:47:55;8.77;;;3.60;;
20397;SDS011;10358;49.590;11.030;2023-07-09T14:50:22;5.93;;;3.58;;
20397;SDS011;10358;49.590;11.030;2023-07-09T14:52:48;8.50;;;3.72;;
20397;SDS011;10358;49.590;11.030;2023-07-09T14:55:14;6.82;;;3.67;;
20397;SDS011;10358;49.590;11.030;2023-07-09T14:57:42;6.88;;;3.50;;
20397;SDS011;10358;49.590;11.030;2023-07-09T15:00:18;7.20;;;3.55;;
20397;SDS011;10358;49.590;11.030;2023-07-09T15:02:45;9.68;;;3.67;;
20397;SDS011;10358;49.590;11.030;2023-07-09T15:05:29;7.10;;;3.70;;
20397;SDS011;10358;49.590;11.030;2023-07-09T15:07:55;7.25;;;3.50;;
20397;SDS011;10358;49.590;11.030;2023-07-09T15:10:22;13.98;;;10.40;;
20397;SDS011;10358;49.590;11.030;2023-07-09T15:12:48;8.70;;;6.22;;
20397;SDS011;10358;49.590;11.030;2023-07-09T15:17:51;17.75;;;9.85;;
20397;SDS011;10358;49.590;11.030;2023-07-09T15:20:21;5.22;;;4.13;;